sensor_id;sensor_type;location;lat;lon;timestamp;P1;durP1;ratioP1;P2;durP2;ratioP2
20511;SDS011;10414;52.074;5.126;2023-05-10T00:01:23;60.92;;;26.67;;
20511;SDS011;10414;52.074;5.126;2023-05-10T00:03:50;69.32;;;25.25;;
20511;SDS011;10414;52.074;5.126;2023-05-10T00:06:20;69.72;;;25.50;;
20511;SDS011;10414;52.074;5.126;2023-05-10T00:08:48;63.17;;;25.30;;
20511;SDS011;10414;52.074;5.126;2023-05-10T00:11:15;69.93;;;25.90;;
20511;SDS011;10414;52.074;5.126;2023-05-10T00:13:42;62.97;;;24.50;;
20511;SDS011;10414;52.074;5.126;2023-05-10T00:16:15;62.72;;;26.05;;
20511;SDS011;10414;52.074;5.126;2023-05-10T00:18:45;65.97;;;24.87;;
20511;SDS011;10414;52.074;5.126;2023-05-10T00:21:11;65.07;;;24.85;;
20511;SDS011;10414;52.074;5.126;2023-05-10T00:23:41;60.33;;;24.92;;
20511;SDS011;10414;52.074;5.126;2023-05-10T00:26:10;67.93;;;26.45;;
20511;SDS011;10414;52.074;5.126;2023-05-10T00:28:37;68.65;;;24.77;;
20511;SDS011;10414;52.074;5.126;2023-05-10T00:31:04;66.88;;;25.45;;
20511;SDS011;10414;52.074;5.126;2023-05-10T00:33:32;71.63;;;24.63;;
20511;SDS011;10414;52.074;5.126;2023-05-10T00:35:58;75.85;;;25.55;;
20511;SDS011;10414;52.074;5.126;2023-05-10T00:38:28;78.03;;;26.25;;
20511;SDS011;10414;52.074;5.126;2023-05-10T00:40:55;78.55;;;26.15;;
20511;SDS011;10414;52.074;5.126;2023-05-10T00:43:25;70.50;;;24.08;;
20511;SDS011;10414;52.074;5.126;2023-05-10T00:45:55;79.10;;;24.48;;
20511;SDS011;10414;52.074;5.126;2023-05-10T00:48:22;79.63;;;24.83;;
20511;SDS011;10414;52.074;5.126;2023-05-10T00:50:49;79.38;;;26.55;;
20511;SDS011;10414;52.074;5.126;2023-05-10T00:53:16;78.90;;;26.10;;
20511;SDS011;10414;52.074;5.126;2023-05-10T00:55:43;71.65;;;23.67;;
20511;SDS011;10414;52.074;5.126;2023-05-10T00:58:10;78.32;;;25.30;;
20511;SDS011;10414;52.074;5.126;2023-05-10T01:00:38;77.88;;;25.55;;
20511;SDS011;10414;52.074;5.126;2023-05-10T01:03:12;74.65;;;23.48;;
20511;SDS011;10414;52.074;5.126;2023-05-10T01:05:39;82.47;;;25.27;;
20511;SDS011;10414;52.074;5.126;2023-05-10T01:08:06;77.80;;;23.85;;
20511;SDS011;10414;52.074;5.126;2023-05-10T01:10:33;72.78;;;23.67;;
20511;SDS011;10414;52.074;5.126;2023-05-10T01:13:03;68.95;;;23.80;;
20511;SDS011;10414;52.074;5.126;2023-05-10T01:15:32;72.00;;;24.00;;
20511;SDS011;10414;52.074;5.126;2023-05-10T01:18:04;73.20;;;25.20;;
20511;SDS011;10414;52.074;5.126;2023-05-10T01:20:32;74.05;;;24.25;;
20511;SDS011;10414;52.074;5.126;2023-05-10T01:26:18;76.50;;;25.13;;
20511;SDS011;10414;52.074;5.126;2023-05-10T01:29:11;75.78;;;24.10;;
20511;SDS011;10414;52.074;5.126;2023-05-10T01:31:58;78.13;;;25.90;;
20511;SDS011;10414;52.074;5.126;2023-05-10T01:34:48;75.13;;;21.88;;
20511;SDS011;10414;52.074;5.126;2023-05-10T01:37:28;86.35;;;23.67;;
20511;SDS011;10414;52.074;5.126;2023-05-10T01:40:01;95.68;;;24.45;;
20511;SDS011;10414;52.074;5.126;2023-05-10T01:42:36;98.75;;;24.55;;
20511;SDS011;10414;52.074;5.126;2023-05-10T01:45:11;81.70;;;23.80;;
20511;SDS011;10414;52.074;5.126;2023-05-10T01:47:49;98.55;;;24.73;;
20511;SDS011;10414;52.074;5.126;2023-05-10T01:50:22;93.70;;;24.90;;
20511;SDS011;10414;52.074;5.126;2023-05-10T01:52:54;98.93;;;26.02;;
20511;SDS011;10414;52.074;5.126;2023-05-10T01:55:26;101.53;;;25.83;;
20511;SDS011;10414;52.074;5.126;2023-05-10T01:58:06;96.60;;;25.33;;
20511;SDS011;10414;52.074;5.126;2023-05-10T02:00:37;87.88;;;25.42;;
20511;SDS011;10414;52.074;5.126;2023-05-10T02:03:13;98.00;;;27.92;;
20511;SDS011;10414;52.074;5.126;2023-05-10T02:05:46;102.63;;;26.98;;
20511;SDS011;10414;52.074;5.126;2023-05-10T02:08:15;101.70;;;26.80;;
20511;SDS011;10414;52.074;5.126;2023-05-10T02:10:45;95.28;;;27.75;;
20511;SDS011;10414;52.074;5.126;2023-05-10T02:13:13;103.88;;;26.92;;
20511;SDS011;10414;52.074;5.126;2023-05-10T02:15:42;112.40;;;27.98;;
20511;SDS011;10414;52.074;5.126;2023-05-10T02:18:11;109.75;;;27.67;;
20511;SDS011;10414;52.074;5.126;2023-05-10T02:20:40;119.35;;;29.15;;
20511;SDS011;10414;52.074;5.126;2023-05-10T02:23:09;107.45;;;27.55;;
20511;SDS011;10414;52.074;5.126;2023-05-10T02:25:37;103.43;;;26.63;;
20511;SDS011;10414;52.074;5.126;2023-05-10T02:28:05;107.82;;;28.00;;
20511;SDS011;10414;52.074;5.126;2023-05-10T02:30:34;95.40;;;26.73;;
20511;SDS011;10414;52.074;5.126;2023-05-10T02:33:04;91.18;;;26.77;;
20511;SDS011;10414;52.074;5.126;2023-05-10T02:35:33;96.55;;;28.13;;
20511;SDS011;10414;52.074;5.126;2023-05-10T02:38:01;79.80;;;26.90;;
20511;SDS011;10414;52.074;5.126;2023-05-10T02:40:32;91.75;;;27.30;;
20511;SDS011;10414;52.074;5.126;2023-05-10T02:43:01;90.40;;;27.00;;
20511;SDS011;10414;52.074;5.126;2023-05-10T02:45:30;82.30;;;27.38;;
20511;SDS011;10414;52.074;5.126;2023-05-10T02:48:00;87.03;;;27.42;;
20511;SDS011;10414;52.074;5.126;2023-05-10T02:50:27;89.75;;;29.83;;
20511;SDS011;10414;52.074;5.126;2023-05-10T02:52:59;86.00;;;29.00;;
20511;SDS011;10414;52.074;5.126;2023-05-10T02:55:30;86.43;;;27.23;;
20511;SDS011;10414;52.074;5.126;2023-05-10T02:58:00;84.65;;;28.35;;
20511;SDS011;10414;52.074;5.126;2023-05-10T03:00:29;85.13;;;27.10;;
20511;SDS011;10414;52.074;5.126;2023-05-10T03:02:57;81.18;;;26.30;;
20511;SDS011;10414;52.074;5.126;2023-05-10T03:05:24;82.63;;;27.83;;
20511;SDS011;10414;52.074;5.126;2023-05-10T03:07:51;82.25;;;27.40;;
20511;SDS011;10414;52.074;5.126;2023-05-10T03:10:20;79.47;;;26.75;;
20511;SDS011;10414;52.074;5.126;2023-05-10T03:12:56;78.43;;;25.35;;
20511;SDS011;10414;52.074;5.126;2023-05-10T03:18:07;77.20;;;24.38;;
20511;SDS011;10414;52.074;5.126;2023-05-10T03:20:37;88.55;;;25.33;;
20511;SDS011;10414;52.074;5.126;2023-05-10T03:23:11;79.85;;;24.38;;
20511;SDS011;10414;52.074;5.126;2023-05-10T03:25:48;88.75;;;26.48;;
20511;SDS011;10414;52.074;5.126;2023-05-10T03:28:16;93.32;;;29.02;;
20511;SDS011;10414;52.074;5.126;2023-05-10T03:30:44;85.82;;;26.05;;
20511;SDS011;10414;52.074;5.126;2023-05-10T03:33:12;80.70;;;24.73;;
20511;SDS011;10414;52.074;5.126;2023-05-10T03:35:40;89.20;;;25.55;;
20511;SDS011;10414;52.074;5.126;2023-05-10T03:38:07;89.60;;;28.17;;
20511;SDS011;10414;52.074;5.126;2023-05-10T03:40:38;87.10;;;27.38;;
20511;SDS011;10414;52.074;5.126;2023-05-10T03:43:07;86.40;;;26.48;;
20511;SDS011;10414;52.074;5.126;2023-05-10T03:45:35;96.47;;;27.40;;
20511;SDS011;10414;52.074;5.126;2023-05-10T03:48:02;82.20;;;26.23;;
20511;SDS011;10414;52.074;5.126;2023-05-10T03:50:29;102.63;;;28.55;;
20511;SDS011;10414;52.074;5.126;2023-05-10T03:52:56;88.20;;;27.40;;
20511;SDS011;10414;52.074;5.126;2023-05-10T03:55:23;97.28;;;27.13;;
20511;SDS011;10414;52.074;5.126;2023-05-10T03:58:01;101.30;;;28.98;;
20511;SDS011;10414;52.074;5.126;2023-05-10T04:00:29;101.50;;;28.88;;
20511;SDS011;10414;52.074;5.126;2023-05-10T04:02:56;95.93;;;28.95;;
20511;SDS011;10414;52.074;5.126;2023-05-10T04:05:23;95.05;;;27.75;;
20511;SDS011;10414;52.074;5.126;2023-05-10T04:07:50;87.38;;;25.45;;
20511;SDS011;10414;52.074;5.126;2023-05-10T04:10:18;95.55;;;28.08;;
20511;SDS011;10414;52.074;5.126;2023-05-10T04:12:46;95.35;;;27.00;;
20511;SDS011;10414;52.074;5.126;2023-05-10T04:15:19;95.18;;;28.58;;
20511;SDS011;10414;52.074;5.126;2023-05-10T04:17:47;103.30;;;29.02;;
20511;SDS011;10414;52.074;5.126;2023-05-10T04:20:14;102.10;;;29.35;;
20511;SDS011;10414;52.074;5.126;2023-05-10T04:22:44;99.75;;;28.23;;
20511;SDS011;10414;52.074;5.126;2023-05-10T04:25:11;88.40;;;29.70;;
20511;SDS011;10414;52.074;5.126;2023-05-10T04:27:40;96.63;;;29.85;;
20511;SDS011;10414;52.074;5.126;2023-05-10T04:30:07;96.57;;;31.25;;
20511;SDS011;10414;52.074;5.126;2023-05-10T04:32:34;97.25;;;30.73;;
20511;SDS011;10414;52.074;5.126;2023-05-10T04:35:07;89.93;;;30.50;;
20511;SDS011;10414;52.074;5.126;2023-05-10T04:37:37;78.68;;;30.00;;
20511;SDS011;10414;52.074;5.126;2023-05-10T04:40:04;85.60;;;30.27;;
20511;SDS011;10414;52.074;5.126;2023-05-10T04:42:32;82.30;;;32.15;;
20511;SDS011;10414;52.074;5.126;2023-05-10T04:44:58;77.00;;;32.10;;
20511;SDS011;10414;52.074;5.126;2023-05-10T04:47:25;78.20;;;30.77;;
20511;SDS011;10414;52.074;5.126;2023-05-10T04:49:52;74.40;;;31.85;;
20511;SDS011;10414;52.074;5.126;2023-05-10T04:52:25;69.45;;;29.92;;
20511;SDS011;10414;52.074;5.126;2023-05-10T04:54:52;65.72;;;26.30;;
20511;SDS011;10414;52.074;5.126;2023-05-10T04:57:19;62.17;;;28.10;;
20511;SDS011;10414;52.074;5.126;2023-05-10T04:59:47;64.45;;;26.95;;
20511;SDS011;10414;52.074;5.126;2023-05-10T05:02:16;68.07;;;28.40;;
20511;SDS011;10414;52.074;5.126;2023-05-10T05:04:47;67.95;;;29.88;;
20511;SDS011;10414;52.074;5.126;2023-05-10T05:07:14;76.40;;;30.25;;
20511;SDS011;10414;52.074;5.126;2023-05-10T05:09:45;78.18;;;31.50;;
20511;SDS011;10414;52.074;5.126;2023-05-10T05:12:12;82.68;;;29.75;;
20511;SDS011;10414;52.074;5.126;2023-05-10T05:14:41;76.03;;;30.95;;
20511;SDS011;10414;52.074;5.126;2023-05-10T05:17:08;74.43;;;30.23;;
20511;SDS011;10414;52.074;5.126;2023-05-10T05:19:35;88.30;;;32.13;;
20511;SDS011;10414;52.074;5.126;2023-05-10T05:22:02;73.35;;;28.55;;
20511;SDS011;10414;52.074;5.126;2023-05-10T05:24:32;83.00;;;27.70;;
20511;SDS011;10414;52.074;5.126;2023-05-10T05:27:04;75.22;;;27.17;;
20511;SDS011;10414;52.074;5.126;2023-05-10T05:29:31;69.25;;;25.70;;
20511;SDS011;10414;52.074;5.126;2023-05-10T05:31:58;73.35;;;26.25;;
20511;SDS011;10414;52.074;5.126;2023-05-10T05:34:25;70.47;;;25.50;;
20511;SDS011;10414;52.074;5.126;2023-05-10T05:36:52;70.93;;;25.77;;
20511;SDS011;10414;52.074;5.126;2023-05-10T05:39:21;61.88;;;24.73;;
20511;SDS011;10414;52.074;5.126;2023-05-10T05:41:50;59.33;;;22.00;;
20511;SDS011;10414;52.074;5.126;2023-05-10T05:44:19;64.10;;;23.52;;
20511;SDS011;10414;52.074;5.126;2023-05-10T05:46:47;57.45;;;22.40;;
20511;SDS011;10414;52.074;5.126;2023-05-10T05:49:16;61.85;;;23.50;;
20511;SDS011;10414;52.074;5.126;2023-05-10T05:51:43;52.45;;;20.17;;
20511;SDS011;10414;52.074;5.126;2023-05-10T05:54:14;47.83;;;19.58;;
20511;SDS011;10414;52.074;5.126;2023-05-10T05:56:43;44.60;;;18.67;;
20511;SDS011;10414;52.074;5.126;2023-05-10T05:59:10;45.90;;;18.85;;
20511;SDS011;10414;52.074;5.126;2023-05-10T06:01:39;49.60;;;18.75;;
20511;SDS011;10414;52.074;5.126;2023-05-10T06:04:06;48.53;;;19.42;;
20511;SDS011;10414;52.074;5.126;2023-05-10T06:06:33;51.30;;;18.90;;
20511;SDS011;10414;52.074;5.126;2023-05-10T06:09:00;47.05;;;18.55;;
20511;SDS011;10414;52.074;5.126;2023-05-10T06:11:34;45.38;;;17.95;;
20511;SDS011;10414;52.074;5.126;2023-05-10T06:14:01;40.53;;;16.75;;
20511;SDS011;10414;52.074;5.126;2023-05-10T06:16:29;34.63;;;14.55;;
20511;SDS011;10414;52.074;5.126;2023-05-10T06:18:58;30.15;;;13.85;;
20511;SDS011;10414;52.074;5.126;2023-05-10T06:21:25;30.30;;;13.73;;
20511;SDS011;10414;52.074;5.126;2023-05-10T06:24:01;29.58;;;12.90;;
20511;SDS011;10414;52.074;5.126;2023-05-10T06:26:27;25.70;;;12.05;;
20511;SDS011;10414;52.074;5.126;2023-05-10T06:28:57;30.02;;;12.55;;
20511;SDS011;10414;52.074;5.126;2023-05-10T06:31:24;25.60;;;11.27;;
20511;SDS011;10414;52.074;5.126;2023-05-10T06:33:55;25.83;;;11.20;;
20511;SDS011;10414;52.074;5.126;2023-05-10T06:36:27;22.35;;;10.57;;
20511;SDS011;10414;52.074;5.126;2023-05-10T06:38:56;25.00;;;10.25;;
20511;SDS011;10414;52.074;5.126;2023-05-10T06:41:23;21.08;;;8.85;;
20511;SDS011;10414;52.074;5.126;2023-05-10T06:43:55;19.50;;;9.23;;
20511;SDS011;10414;52.074;5.126;2023-05-10T06:46:21;16.13;;;8.90;;
20511;SDS011;10414;52.074;5.126;2023-05-10T06:48:48;19.25;;;9.43;;
20511;SDS011;10414;52.074;5.126;2023-05-10T06:51:17;17.80;;;8.13;;
20511;SDS011;10414;52.074;5.126;2023-05-10T06:53:50;18.38;;;8.57;;
20511;SDS011;10414;52.074;5.126;2023-05-10T06:56:17;15.50;;;7.43;;
20511;SDS011;10414;52.074;5.126;2023-05-10T06:58:46;16.00;;;7.22;;
20511;SDS011;10414;52.074;5.126;2023-05-10T07:01:14;14.88;;;7.25;;
20511;SDS011;10414;52.074;5.126;2023-05-10T07:03:41;15.07;;;7.55;;
20511;SDS011;10414;52.074;5.126;2023-05-10T07:06:14;12.63;;;7.10;;
20511;SDS011;10414;52.074;5.126;2023-05-10T07:08:41;13.30;;;6.82;;
20511;SDS011;10414;52.074;5.126;2023-05-10T07:11:10;14.57;;;7.22;;
20511;SDS011;10414;52.074;5.126;2023-05-10T07:13:37;15.88;;;7.50;;
20511;SDS011;10414;52.074;5.126;2023-05-10T07:16:06;16.95;;;7.25;;
20511;SDS011;10414;52.074;5.126;2023-05-10T07:18:33;14.00;;;6.85;;
20511;SDS011;10414;52.074;5.126;2023-05-10T07:21:02;14.07;;;6.90;;
20511;SDS011;10414;52.074;5.126;2023-05-10T07:23:32;16.33;;;7.32;;
20511;SDS011;10414;52.074;5.126;2023-05-10T07:26:03;12.85;;;6.82;;
20511;SDS011;10414;52.074;5.126;2023-05-10T07:28:37;14.35;;;7.00;;
20511;SDS011;10414;52.074;5.126;2023-05-10T07:31:13;14.07;;;6.90;;
20511;SDS011;10414;52.074;5.126;2023-05-10T07:33:40;13.80;;;6.68;;
20511;SDS011;10414;52.074;5.126;2023-05-10T07:36:07;12.60;;;6.57;;
20511;SDS011;10414;52.074;5.126;2023-05-10T07:38:34;14.02;;;6.32;;
20511;SDS011;10414;52.074;5.126;2023-05-10T07:41:04;13.48;;;7.10;;
20511;SDS011;10414;52.074;5.126;2023-05-10T07:43:34;13.48;;;6.63;;
20511;SDS011;10414;52.074;5.126;2023-05-10T07:46:02;16.77;;;6.83;;
20511;SDS011;10414;52.074;5.126;2023-05-10T07:48:29;14.27;;;6.97;;
20511;SDS011;10414;52.074;5.126;2023-05-10T07:50:56;12.77;;;6.68;;
20511;SDS011;10414;52.074;5.126;2023-05-10T07:53:23;13.75;;;6.53;;
20511;SDS011;10414;52.074;5.126;2023-05-10T07:55:50;14.52;;;6.40;;
20511;SDS011;10414;52.074;5.126;2023-05-10T07:58:17;16.67;;;6.30;;
20511;SDS011;10414;52.074;5.126;2023-05-10T08:00:46;16.13;;;7.13;;
20511;SDS011;10414;52.074;5.126;2023-05-10T08:03:15;13.13;;;6.25;;
20511;SDS011;10414;52.074;5.126;2023-05-10T08:05:42;14.55;;;6.95;;
20511;SDS011;10414;52.074;5.126;2023-05-10T08:08:09;11.75;;;5.93;;
20511;SDS011;10414;52.074;5.126;2023-05-10T08:10:36;12.27;;;5.97;;
20511;SDS011;10414;52.074;5.126;2023-05-10T08:13:03;13.82;;;6.40;;
20511;SDS011;10414;52.074;5.126;2023-05-10T08:15:30;11.27;;;5.38;;
20511;SDS011;10414;52.074;5.126;2023-05-10T08:17:59;13.25;;;6.28;;
20511;SDS011;10414;52.074;5.126;2023-05-10T08:20:27;13.80;;;6.28;;
20511;SDS011;10414;52.074;5.126;2023-05-10T08:22:54;12.57;;;6.53;;
20511;SDS011;10414;52.074;5.126;2023-05-10T08:25:21;11.82;;;5.97;;
20511;SDS011;10414;52.074;5.126;2023-05-10T08:27:48;13.60;;;6.30;;
20511;SDS011;10414;52.074;5.126;2023-05-10T08:30:14;11.45;;;5.90;;
20511;SDS011;10414;52.074;5.126;2023-05-10T08:32:42;13.68;;;5.80;;
20511;SDS011;10414;52.074;5.126;2023-05-10T08:35:09;11.63;;;6.00;;
20511;SDS011;10414;52.074;5.126;2023-05-10T08:37:37;12.27;;;6.20;;
20511;SDS011;10414;52.074;5.126;2023-05-10T08:40:05;12.77;;;6.57;;
20511;SDS011;10414;52.074;5.126;2023-05-10T08:42:33;11.73;;;6.35;;
20511;SDS011;10414;52.074;5.126;2023-05-10T08:45:03;11.60;;;6.25;;
20511;SDS011;10414;52.074;5.126;2023-05-10T08:47:35;15.15;;;6.28;;
20511;SDS011;10414;52.074;5.126;2023-05-10T08:50:05;11.35;;;5.88;;
20511;SDS011;10414;52.074;5.126;2023-05-10T08:52:33;11.27;;;5.25;;
20511;SDS011;10414;52.074;5.126;2023-05-10T08:55:06;10.80;;;5.63;;
20511;SDS011;10414;52.074;5.126;2023-05-10T08:57:33;11.27;;;5.57;;
20511;SDS011;10414;52.074;5.126;2023-05-10T09:00:01;14.52;;;5.15;;
20511;SDS011;10414;52.074;5.126;2023-05-10T09:02:33;10.20;;;5.40;;
20511;SDS011;10414;52.074;5.126;2023-05-10T09:05:00;11.43;;;4.88;;
20511;SDS011;10414;52.074;5.126;2023-05-10T09:07:29;13.63;;;5.38;;
20511;SDS011;10414;52.074;5.126;2023-05-10T09:09:58;11.48;;;5.00;;
20511;SDS011;10414;52.074;5.126;2023-05-10T09:12:26;12.02;;;4.55;;
20511;SDS011;10414;52.074;5.126;2023-05-10T09:14:53;10.52;;;4.60;;
20511;SDS011;10414;52.074;5.126;2023-05-10T09:17:22;9.27;;;4.55;;
20511;SDS011;10414;52.074;5.126;2023-05-10T09:19:50;9.60;;;4.38;;
20511;SDS011;10414;52.074;5.126;2023-05-10T09:22:25;8.95;;;4.15;;
20511;SDS011;10414;52.074;5.126;2023-05-10T09:25:04;8.43;;;3.72;;
20511;SDS011;10414;52.074;5.126;2023-05-10T09:27:32;6.82;;;3.25;;
20511;SDS011;10414;52.074;5.126;2023-05-10T09:29:59;6.95;;;3.45;;
20511;SDS011;10414;52.074;5.126;2023-05-10T09:32:35;5.63;;;3.00;;
20511;SDS011;10414;52.074;5.126;2023-05-10T09:35:05;7.95;;;3.58;;
20511;SDS011;10414;52.074;5.126;2023-05-10T09:37:33;7.47;;;3.72;;
20511;SDS011;10414;52.074;5.126;2023-05-10T09:40:00;7.82;;;3.67;;
20511;SDS011;10414;52.074;5.126;2023-05-10T09:42:33;5.70;;;3.20;;
20511;SDS011;10414;52.074;5.126;2023-05-10T09:45:02;6.78;;;2.95;;
20511;SDS011;10414;52.074;5.126;2023-05-10T09:47:31;5.75;;;3.10;;
20511;SDS011;10414;52.074;5.126;2023-05-10T09:49:59;6.88;;;3.10;;
20511;SDS011;10414;52.074;5.126;2023-05-10T09:52:29;9.63;;;3.30;;
20511;SDS011;10414;52.074;5.126;2023-05-10T09:54:56;5.90;;;3.25;;
20511;SDS011;10414;52.074;5.126;2023-05-10T09:57:24;7.07;;;3.33;;
20511;SDS011;10414;52.074;5.126;2023-05-10T09:59:52;9.05;;;4.07;;
20511;SDS011;10414;52.074;5.126;2023-05-10T10:02:27;9.10;;;4.00;;
20511;SDS011;10414;52.074;5.126;2023-05-10T10:04:55;7.65;;;4.25;;
20511;SDS011;10414;52.074;5.126;2023-05-10T10:07:23;9.38;;;4.47;;
20511;SDS011;10414;52.074;5.126;2023-05-10T10:09:51;8.63;;;4.00;;
20511;SDS011;10414;52.074;5.126;2023-05-10T10:12:19;8.70;;;3.90;;
20511;SDS011;10414;52.074;5.126;2023-05-10T10:14:47;8.18;;;4.25;;
20511;SDS011;10414;52.074;5.126;2023-05-10T10:17:17;9.75;;;4.15;;
20511;SDS011;10414;52.074;5.126;2023-05-10T10:19:47;7.18;;;3.78;;
20511;SDS011;10414;52.074;5.126;2023-05-10T10:22:15;6.85;;;3.45;;
20511;SDS011;10414;52.074;5.126;2023-05-10T10:24:43;8.18;;;3.78;;
20511;SDS011;10414;52.074;5.126;2023-05-10T10:27:15;7.32;;;4.07;;
20511;SDS011;10414;52.074;5.126;2023-05-10T10:30:02;8.82;;;4.47;;
20511;SDS011;10414;52.074;5.126;2023-05-10T10:32:38;8.70;;;4.25;;
20511;SDS011;10414;52.074;5.126;2023-05-10T10:35:14;10.23;;;4.28;;
20511;SDS011;10414;52.074;5.126;2023-05-10T10:37:45;9.40;;;4.32;;
20511;SDS011;10414;52.074;5.126;2023-05-10T10:40:22;8.75;;;4.53;;
20511;SDS011;10414;52.074;5.126;2023-05-10T10:42:55;6.88;;;3.88;;
20511;SDS011;10414;52.074;5.126;2023-05-10T10:45:24;9.82;;;4.88;;
20511;SDS011;10414;52.074;5.126;2023-05-10T10:50:51;7.50;;;3.85;;
20511;SDS011;10414;52.074;5.126;2023-05-10T10:53:23;7.97;;;4.20;;
20511;SDS011;10414;52.074;5.126;2023-05-10T10:55:55;8.07;;;3.90;;
20511;SDS011;10414;52.074;5.126;2023-05-10T10:58:33;8.63;;;4.05;;
20511;SDS011;10414;52.074;5.126;2023-05-10T11:01:12;9.35;;;4.40;;
20511;SDS011;10414;52.074;5.126;2023-05-10T11:03:41;6.07;;;3.35;;
20511;SDS011;10414;52.074;5.126;2023-05-10T11:06:29;7.93;;;3.70;;
20511;SDS011;10414;52.074;5.126;2023-05-10T11:08:57;8.10;;;3.67;;
20511;SDS011;10414;52.074;5.126;2023-05-10T11:11:24;7.20;;;3.58;;
20511;SDS011;10414;52.074;5.126;2023-05-10T11:13:51;6.78;;;3.67;;
20511;SDS011;10414;52.074;5.126;2023-05-10T11:16:23;8.80;;;3.80;;
20511;SDS011;10414;52.074;5.126;2023-05-10T11:18:53;6.82;;;3.45;;
20511;SDS011;10414;52.074;5.126;2023-05-10T11:21:22;6.97;;;3.63;;
20511;SDS011;10414;52.074;5.126;2023-05-10T11:23:50;6.63;;;3.30;;
20511;SDS011;10414;52.074;5.126;2023-05-10T11:26:21;6.88;;;3.65;;
20511;SDS011;10414;52.074;5.126;2023-05-10T11:28:51;6.75;;;3.22;;
20511;SDS011;10414;52.074;5.126;2023-05-10T11:31:21;6.10;;;3.10;;
20511;SDS011;10414;52.074;5.126;2023-05-10T11:33:52;6.78;;;3.03;;
20511;SDS011;10414;52.074;5.126;2023-05-10T11:36:20;6.30;;;2.90;;
20511;SDS011;10414;52.074;5.126;2023-05-10T11:38:50;6.22;;;3.10;;
20511;SDS011;10414;52.074;5.126;2023-05-10T11:41:18;6.43;;;2.90;;
20511;SDS011;10414;52.074;5.126;2023-05-10T11:43:46;5.30;;;2.60;;
20511;SDS011;10414;52.074;5.126;2023-05-10T11:46:16;6.45;;;2.97;;
20511;SDS011;10414;52.074;5.126;2023-05-10T11:51:19;5.85;;;2.70;;
20511;SDS011;10414;52.074;5.126;2023-05-10T11:53:47;6.47;;;2.95;;
20511;SDS011;10414;52.074;5.126;2023-05-10T11:56:15;9.32;;;3.30;;
20511;SDS011;10414;52.074;5.126;2023-05-10T11:58:42;6.97;;;3.78;;
20511;SDS011;10414;52.074;5.126;2023-05-10T12:01:09;10.05;;;4.78;;
20511;SDS011;10414;52.074;5.126;2023-05-10T12:03:39;9.27;;;5.65;;
20511;SDS011;10414;52.074;5.126;2023-05-10T12:06:08;10.15;;;5.97;;
20511;SDS011;10414;52.074;5.126;2023-05-10T12:08:34;8.98;;;5.35;;
20511;SDS011;10414;52.074;5.126;2023-05-10T12:11:05;9.40;;;6.07;;
20511;SDS011;10414;52.074;5.126;2023-05-10T12:13:36;8.40;;;6.00;;
20511;SDS011;10414;52.074;5.126;2023-05-10T12:16:13;8.63;;;5.78;;
20511;SDS011;10414;52.074;5.126;2023-05-10T12:18:44;10.40;;;6.32;;
20511;SDS011;10414;52.074;5.126;2023-05-10T12:21:18;9.70;;;5.88;;
20511;SDS011;10414;52.074;5.126;2023-05-10T12:23:48;9.60;;;6.18;;
20511;SDS011;10414;52.074;5.126;2023-05-10T12:26:18;8.73;;;5.47;;
20511;SDS011;10414;52.074;5.126;2023-05-10T12:28:52;10.23;;;6.53;;
20511;SDS011;10414;52.074;5.126;2023-05-10T12:31:19;17.20;;;6.53;;
20511;SDS011;10414;52.074;5.126;2023-05-10T12:33:49;16.33;;;7.30;;
20511;SDS011;10414;52.074;5.126;2023-05-10T12:36:16;16.47;;;7.23;;
20511;SDS011;10414;52.074;5.126;2023-05-10T12:38:49;15.70;;;7.93;;
20511;SDS011;10414;52.074;5.126;2023-05-10T12:41:18;19.85;;;8.90;;
20511;SDS011;10414;52.074;5.126;2023-05-10T12:43:44;20.38;;;8.05;;
20511;SDS011;10414;52.074;5.126;2023-05-10T12:46:16;18.13;;;8.60;;
20511;SDS011;10414;52.074;5.126;2023-05-10T12:48:44;21.77;;;9.18;;
20511;SDS011;10414;52.074;5.126;2023-05-10T12:51:11;17.85;;;8.82;;
20511;SDS011;10414;52.074;5.126;2023-05-10T12:53:44;17.15;;;9.15;;
20511;SDS011;10414;52.074;5.126;2023-05-10T12:56:16;19.33;;;8.88;;
20511;SDS011;10414;52.074;5.126;2023-05-10T12:58:42;18.70;;;8.40;;
20511;SDS011;10414;52.074;5.126;2023-05-10T13:01:13;18.80;;;8.80;;
20511;SDS011;10414;52.074;5.126;2023-05-10T13:03:42;21.02;;;9.00;;
20511;SDS011;10414;52.074;5.126;2023-05-10T13:06:09;21.38;;;8.65;;
20511;SDS011;10414;52.074;5.126;2023-05-10T13:08:36;18.25;;;8.43;;
20511;SDS011;10414;52.074;5.126;2023-05-10T13:11:05;17.02;;;8.70;;
20511;SDS011;10414;52.074;5.126;2023-05-10T13:13:32;20.50;;;9.10;;
20511;SDS011;10414;52.074;5.126;2023-05-10T13:16:03;20.33;;;9.23;;
20511;SDS011;10414;52.074;5.126;2023-05-10T13:20:56;21.85;;;9.00;;
20511;SDS011;10414;52.074;5.126;2023-05-10T13:23:25;20.92;;;9.35;;
20511;SDS011;10414;52.074;5.126;2023-05-10T13:25:52;24.40;;;9.88;;
20511;SDS011;10414;52.074;5.126;2023-05-10T13:28:23;19.67;;;9.18;;
20511;SDS011;10414;52.074;5.126;2023-05-10T13:30:52;18.42;;;8.90;;
20511;SDS011;10414;52.074;5.126;2023-05-10T13:33:19;21.00;;;9.20;;
20511;SDS011;10414;52.074;5.126;2023-05-10T13:35:46;18.10;;;8.52;;
20511;SDS011;10414;52.074;5.126;2023-05-10T13:38:13;19.83;;;9.48;;
20511;SDS011;10414;52.074;5.126;2023-05-10T13:40:40;18.88;;;9.18;;
20511;SDS011;10414;52.074;5.126;2023-05-10T13:43:12;19.07;;;8.33;;
20511;SDS011;10414;52.074;5.126;2023-05-10T13:48:08;16.55;;;7.70;;
20511;SDS011;10414;52.074;5.126;2023-05-10T13:50:35;19.92;;;8.38;;
20511;SDS011;10414;52.074;5.126;2023-05-10T13:53:02;16.58;;;7.65;;
20511;SDS011;10414;52.074;5.126;2023-05-10T13:55:31;15.65;;;6.93;;
20511;SDS011;10414;52.074;5.126;2023-05-10T13:57:58;14.95;;;7.00;;
20511;SDS011;10414;52.074;5.126;2023-05-10T14:00:25;12.80;;;6.75;;
20511;SDS011;10414;52.074;5.126;2023-05-10T14:02:54;14.40;;;6.88;;
20511;SDS011;10414;52.074;5.126;2023-05-10T14:05:20;15.55;;;6.90;;
20511;SDS011;10414;52.074;5.126;2023-05-10T14:07:49;13.95;;;6.82;;
20511;SDS011;10414;52.074;5.126;2023-05-10T14:10:16;15.75;;;7.50;;
20511;SDS011;10414;52.074;5.126;2023-05-10T14:12:43;11.85;;;6.05;;
20511;SDS011;10414;52.074;5.126;2023-05-10T14:15:10;14.18;;;6.45;;
20511;SDS011;10414;52.074;5.126;2023-05-10T14:17:39;13.10;;;5.90;;
20511;SDS011;10414;52.074;5.126;2023-05-10T14:20:08;12.07;;;6.10;;
20511;SDS011;10414;52.074;5.126;2023-05-10T14:22:36;11.88;;;6.38;;
20511;SDS011;10414;52.074;5.126;2023-05-10T14:25:05;13.02;;;6.43;;
20511;SDS011;10414;52.074;5.126;2023-05-10T14:27:36;13.95;;;6.22;;
20511;SDS011;10414;52.074;5.126;2023-05-10T14:30:03;12.68;;;6.38;;
20511;SDS011;10414;52.074;5.126;2023-05-10T14:32:30;10.00;;;5.63;;
20511;SDS011;10414;52.074;5.126;2023-05-10T14:34:57;16.95;;;7.00;;
20511;SDS011;10414;52.074;5.126;2023-05-10T14:37:26;12.32;;;5.80;;
20511;SDS011;10414;52.074;5.126;2023-05-10T14:39:52;12.65;;;5.85;;
20511;SDS011;10414;52.074;5.126;2023-05-10T14:42:19;11.05;;;5.90;;
20511;SDS011;10414;52.074;5.126;2023-05-10T14:44:49;11.93;;;5.93;;
20511;SDS011;10414;52.074;5.126;2023-05-10T14:47:16;14.82;;;6.07;;
20511;SDS011;10414;52.074;5.126;2023-05-10T14:49:43;12.77;;;6.00;;
20511;SDS011;10414;52.074;5.126;2023-05-10T14:52:10;11.40;;;6.18;;
20511;SDS011;10414;52.074;5.126;2023-05-10T14:54:38;10.60;;;5.45;;
20511;SDS011;10414;52.074;5.126;2023-05-10T14:57:08;13.63;;;6.20;;
20511;SDS011;10414;52.074;5.126;2023-05-10T14:59:35;11.33;;;6.33;;